sensor_id;sensor_type;location;lat;lon;timestamp;pressure;altitude;pressure_sealevel;temperature;humidity
75438;BME280;64015;49.392;15.582;2024-01-15T00:02:01;94118.72;;;-3.28;100.00
75438;BME280;64015;49.392;15.582;2024-01-15T00:04:28;94121.84;;;-3.26;100.00
75438;BME280;64015;49.392;15.582;2024-01-15T00:06:54;94112.09;;;-3.35;100.00
75438;BME280;64015;49.392;15.582;2024-01-15T00:09:19;94105.75;;;-3.51;100.00
75438;BME280;64015;49.392;15.582;2024-01-15T00:11:45;94099.38;;;-3.49;100.00
75438;BME280;64015;49.392;15.582;2024-01-15T00:14:11;94104.09;;;-3.46;100.00
75438;BME280;64015;49.392;15.582;2024-01-15T00:16:43;94100.38;;;-3.50;100.00
75438;BME280;64015;49.392;15.582;2024-01-15T00:19:08;94100.75;;;-3.46;100.00
75438;BME280;64015;49.392;15.582;2024-01-15T00:21:34;94104.69;;;-3.44;100.00
75438;BME280;64015;49.392;15.582;2024-01-15T00:24:00;94098.72;;;-3.44;100.00
75438;BME280;64015;49.392;15.582;2024-01-15T00:26:25;94101.63;;;-3.41;100.00
75438;BME280;64015;49.392;15.582;2024-01-15T00:28:51;94081.81;;;-3.40;100.00
75438;BME280;64015;49.392;15.582;2024-01-15T00:31:17;94077.44;;;-3.40;100.00
75438;BME280;64015;49.392;15.582;2024-01-15T00:33:43;94064.31;;;-3.50;100.00
75438;BME280;64015;49.392;15.582;2024-01-15T00:36:09;94075.97;;;-3.47;100.00
75438;BME280;64015;49.392;15.582;2024-01-15T00:38:34;94051.75;;;-3.58;100.00
75438;BME280;64015;49.392;15.582;2024-01-15T00:41:00;94061.72;;;-3.50;100.00
75438;BME280;64015;49.392;15.582;2024-01-15T00:43:26;94044.22;;;-3.59;100.00
75438;BME280;64015;49.392;15.582;2024-01-15T00:45:52;94038.66;;;-3.56;100.00
75438;BME280;64015;49.392;15.582;2024-01-15T00:48:17;94038.06;;;-3.58;100.00
75438;BME280;64015;49.392;15.582;2024-01-15T00:50:46;94042.47;;;-3.47;100.00
75438;BME280;64015;49.392;15.582;2024-01-15T00:53:11;94028.13;;;-3.43;100.00
75438;BME280;64015;49.392;15.582;2024-01-15T00:55:37;94022.84;;;-3.48;100.00
75438;BME280;64015;49.392;15.582;2024-01-15T00:58:03;94017.25;;;-3.45;100.00
75438;BME280;64015;49.392;15.582;2024-01-15T01:00:29;94019.38;;;-3.42;100.00
75438;BME280;64015;49.392;15.582;2024-01-15T01:02:55;94003.13;;;-3.43;100.00
75438;BME280;64015;49.392;15.582;2024-01-15T01:05:21;93987.69;;;-3.54;100.00
75438;BME280;64015;49.392;15.582;2024-01-15T01:07:57;94014.47;;;-3.44;100.00
75438;BME280;64015;49.392;15.582;2024-01-15T01:13:48;93995.06;;;-3.46;100.00
75438;BME280;64015;49.392;15.582;2024-01-15T01:16:47;94000.88;;;-3.51;100.00
75438;BME280;64015;49.392;15.582;2024-01-15T01:20:06;93996.44;;;-3.44;100.00
75438;BME280;64015;49.392;15.582;2024-01-15T01:22:35;93994.38;;;-3.42;100.00
75438;BME280;64015;49.392;15.582;2024-01-15T01:25:00;93994.50;;;-3.48;100.00
75438;BME280;64015;49.392;15.582;2024-01-15T01:27:26;94004.47;;;-3.52;100.00
75438;BME280;64015;49.392;15.582;2024-01-15T01:30:30;94020.59;;;-3.56;100.00
75438;BME280;64015;49.392;15.582;2024-01-15T01:32:55;94004.81;;;-3.71;100.00
75438;BME280;64015;49.392;15.582;2024-01-15T01:35:22;93999.31;;;-3.75;100.00
75438;BME280;64015;49.392;15.582;2024-01-15T01:48:12;94000.38;;;-3.94;100.00
75438;BME280;64015;49.392;15.582;2024-01-15T01:50:41;93989.84;;;-4.04;100.00
75438;BME280;64015;49.392;15.582;2024-01-15T01:53:07;93992.56;;;-3.99;100.00
75438;BME280;64015;49.392;15.582;2024-01-15T01:55:54;93979.63;;;-4.11;100.00
75438;BME280;64015;49.392;15.582;2024-01-15T01:58:32;93973.28;;;-4.08;100.00
75438;BME280;64015;49.392;15.582;2024-01-15T02:01:03;93971.25;;;-4.06;100.00
75438;BME280;64015;49.392;15.582;2024-01-15T02:03:39;93980.56;;;-3.94;100.00
75438;BME280;64015;49.392;15.582;2024-01-15T02:06:06;93974.75;;;-4.01;100.00
75438;BME280;64015;49.392;15.582;2024-01-15T02:08:31;93980.56;;;-3.94;100.00
75438;BME280;64015;49.392;15.582;2024-01-15T02:11:07;93961.88;;;-4.01;100.00
75438;BME280;64015;49.392;15.582;2024-01-15T02:13:32;93966.56;;;-3.98;100.00
75438;BME280;64015;49.392;15.582;2024-01-15T02:15:58;93950.44;;;-4.05;100.00
75438;BME280;64015;49.392;15.582;2024-01-15T02:18:24;93972.72;;;-3.99;100.00
75438;BME280;64015;49.392;15.582;2024-01-15T02:20:49;93975.84;;;-3.97;100.00
75438;BME280;64015;49.392;15.582;2024-01-15T02:23:15;93972.16;;;-4.01;100.00
75438;BME280;64015;49.392;15.582;2024-01-15T02:25:43;93960.94;;;-4.06;100.00
75438;BME280;64015;49.392;15.582;2024-01-15T02:28:16;93960.63;;;-4.10;100.00
75438;BME280;64015;49.392;15.582;2024-01-15T02:30:42;93980.31;;;-4.04;100.00
75438;BME280;64015;49.392;15.582;2024-01-15T02:33:21;94001.13;;;-4.05;100.00
75438;BME280;64015;49.392;15.582;2024-01-15T02:36:05;93999.97;;;-4.21;100.00
75438;BME280;64015;49.392;15.582;2024-01-15T02:38:31;94003.19;;;-4.37;100.00
75438;BME280;64015;49.392;15.582;2024-01-15T02:40:57;93995.47;;;-4.37;100.00
75438;BME280;64015;49.392;15.582;2024-01-15T02:47:04;94000.50;;;-4.61;100.00
75438;BME280;64015;49.392;15.582;2024-01-15T02:49:30;94004.06;;;-4.62;100.00
75438;BME280;64015;49.392;15.582;2024-01-15T02:52:03;93991.28;;;-4.68;100.00
75438;BME280;64015;49.392;15.582;2024-01-15T02:54:29;93992.88;;;-4.67;100.00
75438;BME280;64015;49.392;15.582;2024-01-15T02:56:55;93977.94;;;-4.77;100.00
75438;BME280;64015;49.392;15.582;2024-01-15T02:59:24;93983.09;;;-4.77;100.00
75438;BME280;64015;49.392;15.582;2024-01-15T03:01:49;93957.19;;;-4.94;100.00
75438;BME280;64015;49.392;15.582;2024-01-15T03:04:15;93963.66;;;-4.91;100.00
75438;BME280;64015;49.392;15.582;2024-01-15T03:06:40;93970.94;;;-4.88;100.00
75438;BME280;64015;49.392;15.582;2024-01-15T03:09:06;93961.31;;;-4.93;100.00
75438;BME280;64015;49.392;15.582;2024-01-15T03:11:39;93969.66;;;-4.97;100.00
75438;BME280;64015;49.392;15.582;2024-01-15T03:14:04;93965.97;;;-5.01;100.00
75438;BME280;64015;49.392;15.582;2024-01-15T03:16:30;93965.41;;;-5.03;100.00
75438;BME280;64015;49.392;15.582;2024-01-15T03:18:56;93961.84;;;-5.02;100.00
75438;BME280;64015;49.392;15.582;2024-01-15T03:21:21;93958.97;;;-4.94;100.00
75438;BME280;64015;49.392;15.582;2024-01-15T03:23:47;93956.53;;;-4.89;100.00
75438;BME280;64015;49.392;15.582;2024-01-15T03:26:12;93958.00;;;-4.81;100.00
75438;BME280;64015;49.392;15.582;2024-01-15T03:28:38;93965.97;;;-4.83;100.00
75438;BME280;64015;49.392;15.582;2024-01-15T03:31:04;93944.50;;;-4.77;100.00
75438;BME280;64015;49.392;15.582;2024-01-15T03:33:30;93950.25;;;-4.63;100.00
75438;BME280;64015;49.392;15.582;2024-01-15T03:35:55;93955.75;;;-4.60;100.00
75438;BME280;64015;49.392;15.582;2024-01-15T03:38:23;93961.59;;;-4.53;100.00
75438;BME280;64015;49.392;15.582;2024-01-15T03:40:51;93955.03;;;-4.48;100.00
75438;BME280;64015;49.392;15.582;2024-01-15T03:43:17;93963.44;;;-4.41;100.00
75438;BME280;64015;49.392;15.582;2024-01-15T03:45:43;93964.47;;;-4.31;100.00
75438;BME280;64015;49.392;15.582;2024-01-15T03:48:09;93964.94;;;-4.22;100.00
75438;BME280;64015;49.392;15.582;2024-01-15T03:50:34;93970.56;;;-4.14;100.00
75438;BME280;64015;49.392;15.582;2024-01-15T03:58:37;93940.34;;;-4.18;100.00
75438;BME280;64015;49.392;15.582;2024-01-15T04:01:09;93939.13;;;-4.04;100.00
75438;BME280;64015;49.392;15.582;2024-01-15T04:03:41;93938.66;;;-4.13;100.00
75438;BME280;64015;49.392;15.582;2024-01-15T04:06:07;93948.84;;;-4.18;100.00
75438;BME280;64015;49.392;15.582;2024-01-15T04:08:32;93945.94;;;-4.21;100.00
75438;BME280;64015;49.392;15.582;2024-01-15T04:11:04;93950.50;;;-4.23;100.00
75438;BME280;64015;49.392;15.582;2024-01-15T04:13:33;93957.09;;;-4.27;100.00
75438;BME280;64015;49.392;15.582;2024-01-15T04:16:08;93956.41;;;-4.34;100.00
75438;BME280;64015;49.392;15.582;2024-01-15T04:18:34;93948.41;;;-4.44;100.00
75438;BME280;64015;49.392;15.582;2024-01-15T04:21:06;93917.06;;;-4.65;100.00
75438;BME280;64015;49.392;15.582;2024-01-15T04:23:34;93924.06;;;-4.72;100.00
75438;BME280;64015;49.392;15.582;2024-01-15T04:26:15;93947.47;;;-4.62;100.00
75438;BME280;64015;49.392;15.582;2024-01-15T04:28:47;93926.09;;;-4.74;100.00
75438;BME280;64015;49.392;15.582;2024-01-15T04:31:31;93926.19;;;-4.69;100.00
75438;BME280;64015;49.392;15.582;2024-01-15T04:33:56;93950.25;;;-4.63;100.00
75438;BME280;64015;49.392;15.582;2024-01-15T04:36:22;93958.75;;;-4.63;100.00
75438;BME280;64015;49.392;15.582;2024-01-15T04:38:48;93959.91;;;-4.59;100.00
75438;BME280;64015;49.392;15.582;2024-01-15T04:41:27;93963.84;;;-4.56;100.00
75438;BME280;64015;49.392;15.582;2024-01-15T04:43:53;93957.44;;;-4.65;100.00
75438;BME280;64015;49.392;15.582;2024-01-15T04:46:20;93959.34;;;-4.61;100.00
75438;BME280;64015;49.392;15.582;2024-01-15T04:48:46;93950.19;;;-4.57;100.00
75438;BME280;64015;49.392;15.582;2024-01-15T04:51:12;93932.59;;;-4.60;100.00
75438;BME280;64015;49.392;15.582;2024-01-15T04:53:38;93953.88;;;-4.53;100.00
75438;BME280;64015;49.392;15.582;2024-01-15T04:56:04;93933.53;;;-4.54;100.00
75438;BME280;64015;49.392;15.582;2024-01-15T04:58:40;93950.44;;;-4.46;100.00
75438;BME280;64015;49.392;15.582;2024-01-15T05:01:12;93962.44;;;-4.40;100.00
75438;BME280;64015;49.392;15.582;2024-01-15T05:03:37;93942.41;;;-4.38;100.00
75438;BME280;64015;49.392;15.582;2024-01-15T05:06:04;93920.81;;;-4.37;100.00
75438;BME280;64015;49.392;15.582;2024-01-15T05:08:29;93935.47;;;-4.38;100.00
75438;BME280;64015;49.392;15.582;2024-01-15T05:11:04;93920.81;;;-4.37;100.00
75438;BME280;64015;49.392;15.582;2024-01-15T05:13:30;93933.16;;;-4.28;100.00
75438;BME280;64015;49.392;15.582;2024-01-15T05:15:56;93938.31;;;-4.16;100.00
75438;BME280;64015;49.392;15.582;2024-01-15T05:18:21;93911.78;;;-4.28;100.00
75438;BME280;64015;49.392;15.582;2024-01-15T05:20:47;93918.72;;;-4.29;100.00
75438;BME280;64015;49.392;15.582;2024-01-15T05:23:13;93953.53;;;-4.15;100.00
75438;BME280;64015;49.392;15.582;2024-01-15T05:25:38;93956.34;;;-4.16;100.00
75438;BME280;64015;49.392;15.582;2024-01-15T05:28:05;93948.19;;;-4.13;100.00
75438;BME280;64015;49.392;15.582;2024-01-15T05:30:31;93963.31;;;-4.05;100.00
75438;BME280;64015;49.392;15.582;2024-01-15T05:32:56;93950.00;;;-4.02;100.00
75438;BME280;64015;49.392;15.582;2024-01-15T05:35:26;93952.56;;;-4.02;100.00
75438;BME280;64015;49.392;15.582;2024-01-15T05:37:58;93955.78;;;-4.06;100.00
75438;BME280;64015;49.392;15.582;2024-01-15T05:40:24;93960.28;;;-4.02;100.00
75438;BME280;64015;49.392;15.582;2024-01-15T05:42:49;93955.72;;;-4.00;100.00
75438;BME280;64015;49.392;15.582;2024-01-15T05:45:16;93977.75;;;-4.04;100.00
75438;BME280;64015;49.392;15.582;2024-01-15T05:47:42;93970.28;;;-3.94;100.00
75438;BME280;64015;49.392;15.582;2024-01-15T05:50:08;93972.94;;;-3.89;100.00
75438;BME280;64015;49.392;15.582;2024-01-15T05:52:34;93979.81;;;-3.83;100.00
75438;BME280;64015;49.392;15.582;2024-01-15T05:54:59;93977.91;;;-3.76;100.00
75438;BME280;64015;49.392;15.582;2024-01-15T05:57:25;93976.13;;;-3.75;100.00
75438;BME280;64015;49.392;15.582;2024-01-15T05:59:54;93971.31;;;-3.71;100.00
75438;BME280;64015;49.392;15.582;2024-01-15T06:02:19;93984.41;;;-3.61;100.00
75438;BME280;64015;49.392;15.582;2024-01-15T06:08:31;93979.47;;;-3.51;100.00
75438;BME280;64015;49.392;15.582;2024-01-15T06:11:16;93994.63;;;-3.31;100.00
75438;BME280;64015;49.392;15.582;2024-01-15T06:13:42;93980.19;;;-3.44;100.00
75438;BME280;64015;49.392;15.582;2024-01-15T06:16:14;93979.84;;;-3.36;100.00
75438;BME280;64015;49.392;15.582;2024-01-15T06:18:58;93994.72;;;-3.38;100.00
75438;BME280;64015;49.392;15.582;2024-01-15T06:21:42;93985.22;;;-3.38;100.00
75438;BME280;64015;49.392;15.582;2024-01-15T06:24:13;93989.91;;;-3.23;100.00
75438;BME280;64015;49.392;15.582;2024-01-15T06:26:40;93969.63;;;-3.31;100.00
75438;BME280;64015;49.392;15.582;2024-01-15T06:29:06;93979.16;;;-3.20;100.00
75438;BME280;64015;49.392;15.582;2024-01-15T06:31:31;93996.97;;;-3.30;100.00
75438;BME280;64015;49.392;15.582;2024-01-15T06:33:58;93975.91;;;-3.27;100.00
75438;BME280;64015;49.392;15.582;2024-01-15T06:36:29;93975.25;;;-3.34;100.00
75438;BME280;64015;49.392;15.582;2024-01-15T06:38:58;93991.94;;;-3.25;100.00
75438;BME280;64015;49.392;15.582;2024-01-15T06:41:23;93983.41;;;-3.25;100.00
75438;BME280;64015;49.392;15.582;2024-01-15T06:43:51;93991.03;;;-3.19;100.00
75438;BME280;64015;49.392;15.582;2024-01-15T06:46:23;94014.91;;;-3.23;100.00
75438;BME280;64015;49.392;15.582;2024-01-15T06:48:49;94020.31;;;-3.25;100.00
75438;BME280;64015;49.392;15.582;2024-01-15T06:51:17;94026.00;;;-3.23;100.00
75438;BME280;64015;49.392;15.582;2024-01-15T06:53:43;94024.56;;;-3.19;100.00
75438;BME280;64015;49.392;15.582;2024-01-15T06:56:09;94030.72;;;-3.20;100.00
75438;BME280;64015;49.392;15.582;2024-01-15T06:58:34;94029.28;;;-3.16;100.00
75438;BME280;64015;49.392;15.582;2024-01-15T07:01:00;94025.56;;;-3.20;100.00
75438;BME280;64015;49.392;15.582;2024-01-15T07:03:26;94031.41;;;-3.24;100.00
75438;BME280;64015;49.392;15.582;2024-01-15T07:05:51;94026.91;;;-3.17;100.00
75438;BME280;64015;49.392;15.582;2024-01-15T07:08:17;94037.22;;;-3.17;100.00
75438;BME280;64015;49.392;15.582;2024-01-15T07:10:43;94028.22;;;-3.15;100.00
75438;BME280;64015;49.392;15.582;2024-01-15T07:13:09;94043.47;;;-3.13;100.00
75438;BME280;64015;49.392;15.582;2024-01-15T07:15:34;94044.06;;;-3.11;100.00
75438;BME280;64015;49.392;15.582;2024-01-15T07:18:00;94035.22;;;-3.15;100.00
75438;BME280;64015;49.392;15.582;2024-01-15T07:20:26;94045.28;;;-3.14;100.00
75438;BME280;64015;49.392;15.582;2024-01-15T07:22:52;94053.94;;;-3.08;100.00
75438;BME280;64015;49.392;15.582;2024-01-15T07:25:17;94041.47;;;-3.11;100.00
75438;BME280;64015;49.392;15.582;2024-01-15T07:28:01;94048.56;;;-3.07;100.00
75438;BME280;64015;49.392;15.582;2024-01-15T07:30:29;94053.25;;;-3.04;100.00
75438;BME280;64015;49.392;15.582;2024-01-15T07:32:54;94039.56;;;-3.04;100.00
75438;BME280;64015;49.392;15.582;2024-01-15T07:35:21;94064.69;;;-2.99;100.00
75438;BME280;64015;49.392;15.582;2024-01-15T07:37:46;94041.47;;;-2.99;100.00
75438;BME280;64015;49.392;15.582;2024-01-15T07:40:12;94048.66;;;-3.02;100.00
75438;BME280;64015;49.392;15.582;2024-01-15T07:42:38;94050.31;;;-2.95;100.00
75438;BME280;64015;49.392;15.582;2024-01-15T07:45:04;94053.47;;;-2.93;100.00
75438;BME280;64015;49.392;15.582;2024-01-15T07:47:30;94054.03;;;-2.91;100.00
75438;BME280;64015;49.392;15.582;2024-01-15T07:49:58;94038.44;;;-2.96;100.00
75438;BME280;64015;49.392;15.582;2024-01-15T07:52:32;94045.41;;;-2.97;100.00
75438;BME280;64015;49.392;15.582;2024-01-15T07:54:58;94054.13;;;-2.86;100.00
75438;BME280;64015;49.392;15.582;2024-01-15T07:57:29;94029.94;;;-2.97;100.00
75438;BME280;64015;49.392;15.582;2024-01-15T07:59:54;94019.72;;;-2.92;100.00
75438;BME280;64015;49.392;15.582;2024-01-15T08:02:20;94039.41;;;-2.74;100.00
75438;BME280;64015;49.392;15.582;2024-01-15T08:04:47;94035.25;;;-2.75;100.00
75438;BME280;64015;49.392;15.582;2024-01-15T08:07:13;94046.59;;;-2.76;100.00
75438;BME280;64015;49.392;15.582;2024-01-15T08:09:38;94032.47;;;-2.74;100.00
75438;BME280;64015;49.392;15.582;2024-01-15T08:12:04;94053.66;;;-2.60;100.00
75438;BME280;64015;49.392;15.582;2024-01-15T08:14:31;94039.84;;;-2.66;100.00
75438;BME280;64015;49.392;15.582;2024-01-15T08:16:57;94051.28;;;-2.61;100.00
75438;BME280;64015;49.392;15.582;2024-01-15T08:19:27;94044.88;;;-2.59;100.00
75438;BME280;64015;49.392;15.582;2024-01-15T08:21:53;94052.75;;;-2.54;100.00
75438;BME280;64015;49.392;15.582;2024-01-15T08:24:22;94052.28;;;-2.51;100.00
75438;BME280;64015;49.392;15.582;2024-01-15T08:26:47;94074.59;;;-2.45;100.00
75438;BME280;64015;49.392;15.582;2024-01-15T08:29:13;94046.56;;;-2.53;100.00
75438;BME280;64015;49.392;15.582;2024-01-15T08:31:39;94050.34;;;-2.44;100.00
75438;BME280;64015;49.392;15.582;2024-01-15T08:34:04;94033.28;;;-2.45;100.00
75438;BME280;64015;49.392;15.582;2024-01-15T08:36:30;94034.16;;;-2.39;100.00
75438;BME280;64015;49.392;15.582;2024-01-15T08:38:56;94048.44;;;-2.37;100.00
75438;BME280;64015;49.392;15.582;2024-01-15T08:41:22;94046.06;;;-2.38;100.00
75438;BME280;64015;49.392;15.582;2024-01-15T08:43:49;94048.75;;;-2.33;100.00
75438;BME280;64015;49.392;15.582;2024-01-15T08:46:14;94052.91;;;-2.32;100.00
75438;BME280;64015;49.392;15.582;2024-01-15T08:48:40;94045.41;;;-2.34;100.00
75438;BME280;64015;49.392;15.582;2024-01-15T08:51:06;94068.03;;;-2.24;100.00
75438;BME280;64015;49.392;15.582;2024-01-15T08:53:33;94067.16;;;-2.30;100.00
75438;BME280;64015;49.392;15.582;2024-01-15T08:56:01;94043.47;;;-2.27;100.00
75438;BME280;64015;49.392;15.582;2024-01-15T08:58:27;94037.50;;;-2.27;100.00
75438;BME280;64015;49.392;15.582;2024-01-15T09:00:53;94035.56;;;-2.20;100.00
75438;BME280;64015;49.392;15.582;2024-01-15T09:03:19;94041.22;;;-2.23;99.54
75438;BME280;64015;49.392;15.582;2024-01-15T09:05:45;94054.44;;;-2.19;99.93
75438;BME280;64015;49.392;15.582;2024-01-15T09:08:11;94062.28;;;-2.14;99.42
75438;BME280;64015;49.392;15.582;2024-01-15T09:10:37;94041.75;;;-2.21;100.00
75438;BME280;64015;49.392;15.582;2024-01-15T09:13:03;94064.94;;;-2.09;99.76
75438;BME280;64015;49.392;15.582;2024-01-15T09:15:30;94051.47;;;-2.11;100.00
75438;BME280;64015;49.392;15.582;2024-01-15T09:17:55;94051.03;;;-2.08;99.52
75438;BME280;64015;49.392;15.582;2024-01-15T09:20:22;94051.47;;;-2.11;99.51
75438;BME280;64015;49.392;15.582;2024-01-15T09:22:48;94054.53;;;-2.14;100.00
75438;BME280;64015;49.392;15.582;2024-01-15T09:25:14;94032.75;;;-2.18;100.00
75438;BME280;64015;49.392;15.582;2024-01-15T09:27:39;94057.56;;;-2.17;100.00
75438;BME280;64015;49.392;15.582;2024-01-15T09:30:06;94056.13;;;-2.13;100.00
75438;BME280;64015;49.392;15.582;2024-01-15T09:32:31;94027.50;;;-2.23;100.00
75438;BME280;64015;49.392;15.582;2024-01-15T09:34:58;94041.69;;;-2.09;100.00
75438;BME280;64015;49.392;15.582;2024-01-15T09:37:24;94035.19;;;-2.12;99.93
75438;BME280;64015;49.392;15.582;2024-01-15T09:39:50;94038.66;;;-2.06;100.00
75438;BME280;64015;49.392;15.582;2024-01-15T09:42:16;94031.22;;;-2.03;99.51
75438;BME280;64015;49.392;15.582;2024-01-15T09:44:42;94027.50;;;-1.95;99.43
75438;BME280;64015;49.392;15.582;2024-01-15T09:47:09;94034.53;;;-1.91;98.63
75438;BME280;64015;49.392;15.582;2024-01-15T09:49:35;94039.91;;;-1.80;98.69
75438;BME280;64015;49.392;15.582;2024-01-15T09:52:01;94028.59;;;-1.91;98.75
75438;BME280;64015;49.392;15.582;2024-01-15T09:54:27;94033.53;;;-1.90;98.15
75438;BME280;64015;49.392;15.582;2024-01-15T09:56:54;94019.59;;;-1.89;98.71
75438;BME280;64015;49.392;15.582;2024-01-15T09:59:29;94020.28;;;-1.93;98.10
75438;BME280;64015;49.392;15.582;2024-01-15T10:01:56;94003.22;;;-1.94;97.82
75438;BME280;64015;49.392;15.582;2024-01-15T10:04:24;94014.72;;;-1.85;98.76
75438;BME280;64015;49.392;15.582;2024-01-15T10:06:51;94020.47;;;-1.83;98.39
75438;BME280;64015;49.392;15.582;2024-01-15T10:09:17;94008.94;;;-1.92;99.10
75438;BME280;64015;49.392;15.582;2024-01-15T10:11:44;94009.28;;;-1.89;98.43
75438;BME280;64015;49.392;15.582;2024-01-15T10:14:11;94016.31;;;-1.84;98.89
75438;BME280;64015;49.392;15.582;2024-01-15T10:16:41;93989.84;;;-1.91;99.56
75438;BME280;64015;49.392;15.582;2024-01-15T10:19:07;93987.47;;;-1.93;98.39
75438;BME280;64015;49.392;15.582;2024-01-15T10:21:34;93981.94;;;-1.84;98.70
75438;BME280;64015;49.392;15.582;2024-01-15T10:24:03;93978.09;;;-1.82;98.71
75438;BME280;64015;49.392;15.582;2024-01-15T10:26:30;93988.13;;;-1.85;98.55
75438;BME280;64015;49.392;15.582;2024-01-15T10:28:56;94023.97;;;-1.89;98.04
75438;BME280;64015;49.392;15.582;2024-01-15T10:31:22;93993.75;;;-1.89;97.86
75438;BME280;64015;49.392;15.582;2024-01-15T10:33:48;93968.53;;;-1.98;98.13
75438;BME280;64015;49.392;15.582;2024-01-15T10:36:16;93979.34;;;-1.84;98.36
75438;BME280;64015;49.392;15.582;2024-01-15T10:38:43;93974.34;;;-1.91;98.50
75438;BME280;64015;49.392;15.582;2024-01-15T10:41:09;93979.34;;;-1.84;98.22
75438;BME280;64015;49.392;15.582;2024-01-15T10:43:34;93980.06;;;-1.89;98.94
75438;BME280;64015;49.392;15.582;2024-01-15T10:46:01;94000.28;;;-1.86;99.36
75438;BME280;64015;49.392;15.582;2024-01-15T10:48:26;93995.88;;;-1.85;98.93
75438;BME280;64015;49.392;15.582;2024-01-15T10:50:54;93988.75;;;-1.95;99.07
75438;BME280;64015;49.392;15.582;2024-01-15T10:53:20;93991.06;;;-1.94;99.46
75438;BME280;64015;49.392;15.582;2024-01-15T10:55:47;93978.94;;;-1.93;99.56
75438;BME280;64015;49.392;15.582;2024-01-15T10:58:14;93983.19;;;-1.87;100.00
75438;BME280;64015;49.392;15.582;2024-01-15T11:00:41;93981.41;;;-1.86;100.00
75438;BME280;64015;49.392;15.582;2024-01-15T11:03:08;93979.22;;;-1.78;99.77
75438;BME280;64015;49.392;15.582;2024-01-15T11:05:53;93983.59;;;-1.78;99.57
75438;BME280;64015;49.392;15.582;2024-01-15T11:08:19;93984.22;;;-1.88;99.45
75438;BME280;64015;49.392;15.582;2024-01-15T11:10:50;93970.75;;;-1.90;100.00
75438;BME280;64015;49.392;15.582;2024-01-15T11:13:40;93983.72;;;-1.85;100.00
75438;BME280;64015;49.392;15.582;2024-01-15T11:16:10;93986.25;;;-1.73;99.66
75438;BME280;64015;49.392;15.582;2024-01-15T11:18:40;93991.50;;;-1.68;98.59
75438;BME280;64015;49.392;15.582;2024-01-15T11:23:52;93986.50;;;-1.58;97.91
75438;BME280;64015;49.392;15.582;2024-01-15T11:26:43;93992.75;;;-1.54;96.26
75438;BME280;64015;49.392;15.582;2024-01-15T11:32:06;93992.47;;;-1.58;96.96
75438;BME280;64015;49.392;15.582;2024-01-15T11:34:55;93995.66;;;-1.51;96.91
75438;BME280;64015;49.392;15.582;2024-01-15T11:37:29;93986.56;;;-1.53;96.42
75438;BME280;64015;49.392;15.582;2024-01-15T11:40:20;93998.31;;;-1.45;96.67
75438;BME280;64015;49.392;15.582;2024-01-15T11:42:48;93976.00;;;-1.52;94.11
75438;BME280;64015;49.392;15.582;2024-01-15T11:45:21;93984.44;;;-1.56;94.77
75438;BME280;64015;49.392;15.582;2024-01-15T11:50:49;93975.91;;;-1.57;94.24
75438;BME280;64015;49.392;15.582;2024-01-15T11:53:32;93982.19;;;-1.53;93.07
75438;BME280;64015;49.392;15.582;2024-01-15T11:56:01;93973.56;;;-1.41;93.67
75438;BME280;64015;49.392;15.582;2024-01-15T11:58:28;93976.69;;;-1.39;92.39
75438;BME280;64015;49.392;15.582;2024-01-15T12:00:54;93978.66;;;-1.46;92.18
75438;BME280;64015;49.392;15.582;2024-01-15T12:03:21;93967.69;;;-1.54;92.14
75438;BME280;64015;49.392;15.582;2024-01-15T12:05:54;93962.06;;;-1.51;92.21
75438;BME280;64015;49.392;15.582;2024-01-15T12:08:23;93952.41;;;-1.55;91.96
75438;BME280;64015;49.392;15.582;2024-01-15T12:10:49;93952.78;;;-1.46;91.91
75438;BME280;64015;49.392;15.582;2024-01-15T12:13:16;93944.63;;;-1.38;91.76
75438;BME280;64015;49.392;15.582;2024-01-15T12:15:44;93953.53;;;-1.29;91.37
75438;BME280;64015;49.392;15.582;2024-01-15T12:18:15;93934.69;;;-1.30;90.36
75438;BME280;64015;49.392;15.582;2024-01-15T12:20:41;93943.59;;;-1.21;90.65
75438;BME280;64015;49.392;15.582;2024-01-15T12:23:12;93942.09;;;-1.17;89.88
75438;BME280;64015;49.392;15.582;2024-01-15T12:25:39;93953.44;;;-1.18;89.99
75438;BME280;64015;49.392;15.582;2024-01-15T12:28:06;93937.16;;;-1.18;89.41
75438;BME280;64015;49.392;15.582;2024-01-15T12:30:33;93950.63;;;-1.16;89.21
75438;BME280;64015;49.392;15.582;2024-01-15T12:33:06;93934.13;;;-1.10;89.36
75438;BME280;64015;49.392;15.582;2024-01-15T12:35:36;93932.69;;;-1.01;89.31
75438;BME280;64015;49.392;15.582;2024-01-15T12:38:02;93933.63;;;-0.90;88.85
75438;BME280;64015;49.392;15.582;2024-01-15T12:40:29;93938.09;;;-0.86;88.51
75438;BME280;64015;49.392;15.582;2024-01-15T12:42:55;93935.25;;;-0.84;88.41
75438;BME280;64015;49.392;15.582;2024-01-15T12:45:21;93946.78;;;-0.92;88.40
75438;BME280;64015;49.392;15.582;2024-01-15T12:47:46;93938.09;;;-0.86;87.67
75438;BME280;64015;49.392;15.582;2024-01-15T12:50:12;93937.56;;;-0.83;88.04
75438;BME280;64015;49.392;15.582;2024-01-15T12:52:41;93931.25;;;-0.92;87.57
75438;BME280;64015;49.392;15.582;2024-01-15T12:55:08;93943.81;;;-0.84;87.64
75438;BME280;64015;49.392;15.582;2024-01-15T12:57:35;93924.75;;;-0.72;88.14
75438;BME280;64015;49.392;15.582;2024-01-15T13:00:02;93923.03;;;-0.89;87.22
75438;BME280;64015;49.392;15.582;2024-01-15T13:02:30;93926.09;;;-0.92;87.02
75438;BME280;64015;49.392;15.582;2024-01-15T13:04:55;93922.00;;;-0.88;88.19
75438;BME280;64015;49.392;15.582;2024-01-15T13:07:25;93964.97;;;-0.87;88.31
75438;BME280;64015;49.392;15.582;2024-01-15T13:09:50;93924.78;;;-0.94;87.33
75438;BME280;64015;49.392;15.582;2024-01-15T13:12:20;93940.72;;;-1.02;87.09
75438;BME280;64015;49.392;15.582;2024-01-15T13:14:46;93935.66;;;-0.92;87.43
75438;BME280;64015;49.392;15.582;2024-01-15T13:17:13;93929.59;;;-1.03;87.99
75438;BME280;64015;49.392;15.582;2024-01-15T13:19:40;93926.81;;;-0.96;88.32
75438;BME280;64015;49.392;15.582;2024-01-15T13:22:06;93927.53;;;-1.01;88.78
75438;BME280;64015;49.392;15.582;2024-01-15T13:24:35;93936.84;;;-1.00;88.87